Accueil
METAR-TAF:

METAR-TAF

Aéroports :

Aéroport de Dole-Jura

Dole, France

latitude: 47-02-34N, longitude: 005-26-06E, altitude: 196 m

Observation

Le bulletin a été fait il y a 40 minutes, à 12:30 UTC
Vent 10 kt de nord, variant entre nord-ouest et nord-est
Température 24°C
Humidité 54%
Pression 1023 hPa
Visibilité 10 km ou plus
pas de nuages en-dessous de 1500 mètres et pas de cumulonimbus.

METAR: LFGJ 221230Z AUTO 36010KT 310V040 CAVOK 24/14 Q1023 NOSIG

Heure: 15:10 (13:10 UTC)

Prévision

Le bulletin a été fait il y a 2 heures et 10 minutes, à 11:00 UTC
Prévision valable du 22 à 12 UTC au 22 à 21 UTC
Vent 10 kt de nord-est
Visibilité 10 km ou plus
pas de nuages en-dessous de 1500 mètres et pas de cumulonimbus.

TAF: LFGJ 221100Z 2212/2221 05010KT CAVOK

Observations et prévisions météorologiques de plus de 4000 aéroports (messages METAR et TAF).

Les stations disponibles sont représentées par des disques jaunes et rouges sur la carte.

Passer la souris dessus pour voir le nom de la station.

Cliquer dessus pour voir les observations et prévisions météorologiques.

Pour changer de carte: cliquez sur les boutons verts avec une croix noire pour zoomer, sur le bouton vert avec un tiret pour effectuer un zoom arrière, ou sur les flèches vertes pour les cartes adjacentes.


METAR-TAF: